Time;durP1;ratioP1;P1;durP2;ratioP2;P2;SDS_P1;SDS_P2;PMS_P1;PMS_P2;Temp;Humidity;BMP_temperature;BMP_pressure;BME280_temperature;BME280_humidity;BME280_pressure;Samples;Min_cycle;Max_cycle;Signal;HPM_P1;HPM_P2
2023/11/20 00:00:45;;;;;;;8.07;6.05;;;;;;;;;;10230244;28;20081;-62
2023/11/20 00:05:43;;;;;;;6.88;6.18;;;;;;;;;;10231898;28;20088;-61
2023/11/20 00:10:42;;;;;;;6.55;5.85;;;;;;;;;;10234342;28;20153;-62
2023/11/20 00:15:40;;;;;;;6.35;5.75;;;;;;;;;;10233910;28;20120;-63
2023/11/20 00:20:40;;;;;;;6.93;5.70;;;;;;;;;;10234040;28;20072;-62
2023/11/20 00:25:38;;;;;;;7.40;6.22;;;;;;;;;;10233133;28;20661;-62
2023/11/20 00:30:36;;;;;;;6.43;5.82;;;;;;;;;;10233458;28;20095;-62
2023/11/20 00:35:35;;;;;;;6.28;5.68;;;;;;;;;;10231536;28;20092;-62
2023/11/20 00:40:34;;;;;;;6.35;5.75;;;;;;;;;;10234159;28;20080;-62
2023/11/20 00:45:32;;;;;;;6.35;5.75;;;;;;;;;;10220084;28;20080;-63
2023/11/20 00:50:31;;;;;;;12.00;7.85;;;;;;;;;;10232744;28;20065;-62
2023/11/20 00:55:29;;;;;;;9.10;7.72;;;;;;;;;;10231745;28;20073;-62
2023/11/20 01:00:28;;;;;;;6.75;6.05;;;;;;;;;;10232783;28;20084;-62
2023/11/20 01:05:27;;;;;;;6.30;5.68;;;;;;;;;;10231725;28;20501;-62
2023/11/20 01:10:25;;;;;;;6.88;6.05;;;;;;;;;;10232729;28;20080;-62
2023/11/20 01:15:23;;;;;;;8.02;7.15;;;;;;;;;;10223791;28;20076;-62
2023/11/20 01:20:23;;;;;;;8.85;7.25;;;;;;;;;;10232206;28;20080;-62
2023/11/20 01:25:21;;;;;;;7.63;6.55;;;;;;;;;;10230933;28;20510;-61
2023/11/20 01:30:19;;;;;;;7.25;6.53;;;;;;;;;;10232075;28;20065;-62
2023/11/20 01:35:18;;;;;;;8.77;7.88;;;;;;;;;;10216598;28;20077;-61
2023/11/20 01:40:17;;;;;;;10.18;7.57;;;;;;;;;;10218163;28;20054;-61
2023/11/20 01:45:16;;;;;;;11.93;10.90;;;;;;;;;;10217671;28;20514;-62
2023/11/20 01:50:15;;;;;;;9.10;8.18;;;;;;;;;;10231225;28;20064;-62
2023/11/20 01:55:14;;;;;;;11.68;10.57;;;;;;;;;;10231686;28;20526;-63
2023/11/20 02:00:15;;;;;;;9.68;8.48;;;;;;;;;;10222124;28;20042;-63
2023/11/20 02:05:13;;;;;;;9.27;8.27;;;;;;;;;;10229764;28;20088;-63
2023/11/20 02:10:12;;;;;;;7.93;7.22;;;;;;;;;;10231421;28;20537;-63
2023/11/20 02:15:12;;;;;;;8.77;7.88;;;;;;;;;;10229448;28;20081;-63
2023/11/20 02:20:14;;;;;;;7.95;7.15;;;;;;;;;;10223620;28;20084;-63
2023/11/20 02:25:12;;;;;;;7.60;6.90;;;;;;;;;;10223198;28;20045;-63
2023/11/20 02:30:12;;;;;;;7.03;6.30;;;;;;;;;;10238298;28;20069;-63
2023/11/20 02:35:15;;;;;;;6.72;5.63;;;;;;;;;;10236491;28;20081;-62
2023/11/20 02:40:13;;;;;;;7.97;6.88;;;;;;;;;;10237512;28;20061;-62
2023/11/20 02:45:13;;;;;;;6.85;5.75;;;;;;;;;;10236956;28;20069;-62
2023/11/20 02:50:12;;;;;;;7.93;6.40;;;;;;;;;;10237943;28;20496;-62
2023/11/20 02:55:10;;;;;;;7.45;6.55;;;;;;;;;;10236978;28;20524;-62
2023/11/20 03:00:11;;;;;;;6.60;5.90;;;;;;;;;;10229089;28;20073;-62
2023/11/20 03:05:11;;;;;;;6.65;6.00;;;;;;;;;;10236386;28;20065;-62
2023/11/20 03:10:10;;;;;;;7.45;6.60;;;;;;;;;;10237662;28;20070;-63
2023/11/20 03:15:09;;;;;;;7.63;6.82;;;;;;;;;;10236479;28;20103;-62
2023/11/20 03:20:07;;;;;;;6.63;5.68;;;;;;;;;;10236045;28;20144;-62
2023/11/20 03:25:07;;;;;;;6.95;6.25;;;;;;;;;;10235718;28;20080;-62
2023/11/20 03:30:06;;;;;;;9.70;8.70;;;;;;;;;;10236822;28;20157;-62
2023/11/20 03:35:06;;;;;;;8.43;7.40;;;;;;;;;;10235546;28;20077;-62
2023/11/20 03:40:04;;;;;;;6.70;6.10;;;;;;;;;;10232356;28;20080;-63
2023/11/20 03:45:05;;;;;;;6.57;5.78;;;;;;;;;;10237047;28;20060;-63
2023/11/20 03:50:04;;;;;;;7.20;6.50;;;;;;;;;;10233727;28;20057;-62
2023/11/20 03:55:02;;;;;;;6.85;6.13;;;;;;;;;;10232647;28;20073;-62
2023/11/20 04:00:01;;;;;;;6.20;5.60;;;;;;;;;;10234967;28;20077;-63
2023/11/20 04:05:03;;;;;;;9.40;6.30;;;;;;;;;;10232296;28;20099;-62
2023/11/20 04:10:02;;;;;;;7.30;6.15;;;;;;;;;;10232380;28;20064;-62
2023/11/20 04:15:02;;;;;;;9.38;7.40;;;;;;;;;;10233128;28;20119;-63
2023/11/20 04:20:00;;;;;;;6.60;5.90;;;;;;;;;;10229391;28;20076;-62
2023/11/20 04:25:00;;;;;;;6.32;5.68;;;;;;;;;;10233575;28;20455;-60
2023/11/20 04:29:58;;;;;;;7.10;5.70;;;;;;;;;;10234833;28;20076;-62
2023/11/20 04:34:57;;;;;;;7.45;6.57;;;;;;;;;;10234271;28;20491;-62
2023/11/20 04:39:55;;;;;;;10.02;8.30;;;;;;;;;;10233229;28;20513;-62
2023/11/20 04:44:54;;;;;;;10.10;8.95;;;;;;;;;;10232317;28;20080;-61
2023/11/20 04:49:53;;;;;;;9.60;7.88;;;;;;;;;;10233171;28;20069;-63
2023/11/20 04:54:52;;;;;;;8.23;7.13;;;;;;;;;;10232392;28;20068;-63
2023/11/20 04:59:51;;;;;;;8.50;7.10;;;;;;;;;;10232404;28;20073;-61
2023/11/20 05:04:50;;;;;;;9.23;8.32;;;;;;;;;;10230802;28;20061;-62
2023/11/20 05:09:48;;;;;;;8.60;7.63;;;;;;;;;;10230738;28;20077;-61
2023/11/20 05:14:47;;;;;;;7.80;7.05;;;;;;;;;;10230417;28;20080;-62
2023/11/20 05:19:45;;;;;;;11.93;9.02;;;;;;;;;;10232768;28;20073;-62
2023/11/20 05:24:47;;;;;;;12.70;7.30;;;;;;;;;;10227930;28;20073;-63
2023/11/20 05:29:46;;;;;;;9.90;7.28;;;;;;;;;;10231407;28;20065;-62
2023/11/20 05:34:44;;;;;;;11.77;8.25;;;;;;;;;;10229697;28;20092;-63
2023/11/20 05:39:42;;;;;;;14.05;9.40;;;;;;;;;;10231734;28;20065;-63
2023/11/20 05:44:44;;;;;;;12.50;9.65;;;;;;;;;;10230629;28;20073;-62
2023/11/20 05:49:42;;;;;;;11.00;9.63;;;;;;;;;;10231411;28;20104;-62
2023/11/20 05:54:40;;;;;;;8.95;7.68;;;;;;;;;;10225837;28;20081;-62
2023/11/20 05:59:38;;;;;;;10.13;8.40;;;;;;;;;;10228186;28;20085;-62
2023/11/20 06:04:38;;;;;;;11.13;10.02;;;;;;;;;;10236927;28;20100;-60
2023/11/20 06:09:36;;;;;;;9.60;8.38;;;;;;;;;;10237925;28;20072;-61
2023/11/20 06:14:35;;;;;;;13.32;11.95;;;;;;;;;;10216770;28;20151;-62
2023/11/20 06:19:33;;;;;;;16.02;11.00;;;;;;;;;;10230935;28;21579;-62
2023/11/20 06:24:33;;;;;;;15.15;12.50;;;;;;;;;;10230767;28;20064;-62
2023/11/20 06:29:32;;;;;;;12.45;11.15;;;;;;;;;;10231829;28;20069;-63
2023/11/20 06:34:30;;;;;;;15.75;13.05;;;;;;;;;;10229618;28;20167;-62
2023/11/20 06:39:28;;;;;;;14.90;11.43;;;;;;;;;;10232324;28;20469;-63
2023/11/20 06:44:28;;;;;;;14.70;11.57;;;;;;;;;;10231666;28;20728;-62
2023/11/20 06:49:27;;;;;;;20.70;14.50;;;;;;;;;;10230808;28;20076;-63
2023/11/20 06:54:25;;;;;;;21.65;15.68;;;;;;;;;;10233870;28;20083;-63
2023/11/20 06:59:23;;;;;;;16.70;13.45;;;;;;;;;;10233644;28;20072;-63
2023/11/20 07:04:23;;;;;;;21.60;16.48;;;;;;;;;;10230059;28;20065;-63
2023/11/20 07:09:28;;;;;;;15.75;11.38;;;;;;;;;;10236030;28;20073;-63
2023/11/20 07:14:27;;;;;;;17.63;11.43;;;;;;;;;;10232651;28;20191;-63
2023/11/20 07:19:26;;;;;;;21.58;13.80;;;;;;;;;;10234940;28;20080;-63
2023/11/20 07:24:26;;;;;;;21.58;13.68;;;;;;;;;;10235748;28;20095;-63
2023/11/20 07:29:24;;;;;;;26.45;13.75;;;;;;;;;;10229810;28;20061;-63
2023/11/20 07:34:22;;;;;;;14.52;11.70;;;;;;;;;;10228767;28;20077;-63
2023/11/20 07:39:22;;;;;;;12.77;11.02;;;;;;;;;;10233115;28;20077;-63
2023/11/20 07:44:20;;;;;;;16.98;13.63;;;;;;;;;;10233016;28;20705;-63
2023/11/20 07:49:19;;;;;;;20.95;13.68;;;;;;;;;;10233309;28;20073;-63
2023/11/20 07:54:17;;;;;;;15.95;12.50;;;;;;;;;;10234759;28;20069;-63
2023/11/20 07:59:16;;;;;;;17.38;14.75;;;;;;;;;;10233684;28;20085;-62
2023/11/20 08:04:16;;;;;;;14.30;12.18;;;;;;;;;;10235142;28;20088;-63
2023/11/20 08:09:15;;;;;;;15.35;10.60;;;;;;;;;;10233566;28;20168;-63
2023/11/20 08:14:15;;;;;;;18.27;11.88;;;;;;;;;;10234450;28;20077;-63
2023/11/20 08:19:15;;;;;;;18.83;11.85;;;;;;;;;;10234570;28;20076;-63
2023/11/20 08:24:14;;;;;;;14.35;10.40;;;;;;;;;;10233634;28;20065;-63
2023/11/20 08:29:15;;;;;;;10.95;9.15;;;;;;;;;;10233001;28;20069;-62
2023/11/20 08:34:15;;;;;;;16.17;9.75;;;;;;;;;;10232376;28;20069;-63
2023/11/20 08:39:18;;;;;;;12.63;10.27;;;;;;;;;;10231333;28;20094;-62
2023/11/20 08:44:17;;;;;;;14.98;11.30;;;;;;;;;;10231028;28;20065;-62
2023/11/20 08:49:17;;;;;;;10.05;8.35;;;;;;;;;;10230782;28;20087;-62
2023/11/20 08:54:15;;;;;;;8.27;7.43;;;;;;;;;;10232200;28;20549;-62
2023/11/20 08:59:13;;;;;;;10.68;8.27;;;;;;;;;;10229818;28;20096;-62
2023/11/20 09:04:12;;;;;;;12.00;8.77;;;;;;;;;;10232542;28;20510;-63
2023/11/20 09:09:12;;;;;;;15.18;10.82;;;;;;;;;;10229063;28;20080;-62
2023/11/20 09:14:12;;;;;;;7.30;6.65;;;;;;;;;;10226484;28;20050;-63
2023/11/20 09:19:11;;;;;;;10.07;8.23;;;;;;;;;;10226029;28;20081;-62
2023/11/20 09:24:09;;;;;;;10.10;8.40;;;;;;;;;;10226581;28;20522;-62
2023/11/20 09:29:10;;;;;;;16.92;12.55;;;;;;;;;;10229868;28;20073;-63
2023/11/20 09:34:08;;;;;;;10.23;8.00;;;;;;;;;;10230609;28;20061;-62
2023/11/20 09:39:06;;;;;;;8.02;7.22;;;;;;;;;;10240541;28;20450;-63
2023/11/20 09:44:06;;;;;;;8.85;6.53;;;;;;;;;;10236767;28;20065;-62
2023/11/20 09:49:08;;;;;;;9.63;8.27;;;;;;;;;;10237166;28;20080;-63
2023/11/20 09:54:08;;;;;;;10.25;7.60;;;;;;;;;;10239054;28;20081;-63
2023/11/20 09:59:06;;;;;;;7.55;6.78;;;;;;;;;;10238431;28;20093;-63
2023/11/20 10:04:06;;;;;;;15.20;11.73;;;;;;;;;;10238141;28;20471;-62
2023/11/20 10:09:07;;;;;;;11.57;8.90;;;;;;;;;;10238675;28;20094;-62
2023/11/20 10:14:05;;;;;;;10.77;7.35;;;;;;;;;;10239811;28;20069;-64
2023/11/20 10:19:04;;;;;;;6.13;5.10;;;;;;;;;;10238858;28;20073;-63
2023/11/20 10:24:05;;;;;;;7.63;4.85;;;;;;;;;;10237797;28;20088;-63
2023/11/20 10:29:09;;;;;;;11.45;7.43;;;;;;;;;;10237074;28;20371;-63
2023/11/20 10:34:09;;;;;;;6.37;5.77;;;;;;;;;;10236115;28;20510;-63
2023/11/20 10:39:12;;;;;;;9.30;4.97;;;;;;;;;;10237659;28;20069;-63
2023/11/20 10:44:10;;;;;;;6.82;4.47;;;;;;;;;;10236758;28;20084;-63
2023/11/20 10:49:11;;;;;;;5.22;4.50;;;;;;;;;;10235928;28;20085;-65
2023/11/20 10:54:14;;;;;;;5.20;4.43;;;;;;;;;;10238091;28;20452;-63
2023/11/20 10:59:14;;;;;;;7.25;5.32;;;;;;;;;;10238000;28;20096;-63
2023/11/20 11:04:13;;;;;;;5.07;4.28;;;;;;;;;;10236671;28;20072;-64
2023/11/20 11:09:18;;;;;;;6.80;4.88;;;;;;;;;;10236644;28;20069;-64
2023/11/20 11:14:16;;;;;;;3.80;3.50;;;;;;;;;;10236435;28;20069;-63
2023/11/20 11:19:17;;;;;;;5.97;3.85;;;;;;;;;;10235941;28;20083;-64
2023/11/20 11:24:17;;;;;;;10.20;6.72;;;;;;;;;;10235909;28;20066;-62
2023/11/20 11:29:17;;;;;;;6.28;5.00;;;;;;;;;;10235573;28;20509;-63
2023/11/20 11:34:26;;;;;;;5.07;4.35;;;;;;;;;;10235700;28;20061;-65
2023/11/20 11:39:30;;;;;;;8.75;5.53;;;;;;;;;;10234293;28;20088;-64
2023/11/20 11:44:38;;;;;;;6.07;5.38;;;;;;;;;;10233893;28;20522;-63
2023/11/20 11:49:37;;;;;;;9.45;7.07;;;;;;;;;;10229685;28;20563;-64
2023/11/20 11:54:36;;;;;;;3.40;3.10;;;;;;;;;;10233070;28;20095;-64
2023/11/20 11:59:38;;;;;;;5.00;4.18;;;;;;;;;;10232063;28;20084;-62
2023/11/20 12:05:07;;;;;;;3.55;3.25;;;;;;;;;;10233313;28;20085;-63
2023/11/20 12:10:10;;;;;;;4.72;4.07;;;;;;;;;;10144398;28;20081;-63
2023/11/20 12:15:31;;;;;;;5.65;4.20;;;;;;;;;;10232746;28;20072;-63
2023/11/20 12:20:30;;;;;;;4.68;4.05;;;;;;;;;;10233198;28;20076;-64
2023/11/20 12:25:30;;;;;;;4.03;3.63;;;;;;;;;;10233616;28;20073;-63
2023/11/20 12:30:29;;;;;;;5.50;3.58;;;;;;;;;;10233533;28;20068;-63
2023/11/20 12:35:27;;;;;;;7.68;4.78;;;;;;;;;;10233481;28;20064;-63
2023/11/20 12:40:25;;;;;;;3.58;3.28;;;;;;;;;;10232963;28;20073;-63
2023/11/20 12:45:25;;;;;;;4.75;3.60;;;;;;;;;;10233385;28;20061;-63
2023/11/20 12:50:26;;;;;;;4.75;4.07;;;;;;;;;;10233440;28;20061;-63
2023/11/20 12:55:27;;;;;;;5.63;4.78;;;;;;;;;;10232547;28;20088;-63
2023/11/20 13:00:27;;;;;;;5.82;3.97;;;;;;;;;;10232257;28;20537;-64
2023/11/20 13:05:27;;;;;;;8.98;4.93;;;;;;;;;;10232514;28;20096;-64
2023/11/20 13:10:26;;;;;;;10.65;6.63;;;;;;;;;;10231123;28;20570;-64
2023/11/20 13:15:25;;;;;;;5.60;4.15;;;;;;;;;;10232432;28;20076;-64
2023/11/20 13:20:44;;;;;;;6.82;5.97;;;;;;;;;;10232028;28;20116;-64
2023/11/20 13:25:43;;;;;;;5.30;4.78;;;;;;;;;;10231737;28;20080;-64
2023/11/20 13:30:55;;;;;;;7.57;5.15;;;;;;;;;;10232153;28;20061;-64
2023/11/20 13:35:54;;;;;;;8.05;6.10;;;;;;;;;;10230583;28;20459;-63
2023/11/20 13:40:54;;;;;;;8.48;5.95;;;;;;;;;;10230752;28;20081;-63
2023/11/20 13:45:56;;;;;;;11.43;9.65;;;;;;;;;;10230199;28;20076;-63
2023/11/20 13:50:56;;;;;;;38.30;24.02;;;;;;;;;;10231240;28;20069;-64
2023/11/20 13:55:55;;;;;;;21.35;12.75;;;;;;;;;;10230232;28;20065;-64
2023/11/20 14:00:55;;;;;;;24.33;15.13;;;;;;;;;;10230659;28;20486;-64
2023/11/20 14:05:55;;;;;;;25.73;17.42;;;;;;;;;;10226071;28;20099;-64
2023/11/20 14:10:58;;;;;;;15.15;11.55;;;;;;;;;;10228660;28;20072;-64
2023/11/20 14:15:57;;;;;;;9.13;7.22;;;;;;;;;;10226800;28;20086;-64
2023/11/20 14:20:57;;;;;;;21.75;17.08;;;;;;;;;;10229831;28;20161;-64
2023/11/20 14:25:56;;;;;;;28.40;22.45;;;;;;;;;;10236288;28;20115;-64
2023/11/20 14:30:57;;;;;;;47.67;28.23;;;;;;;;;;10237276;28;20061;-62
2023/11/20 14:35:55;;;;;;;21.35;16.02;;;;;;;;;;10232577;28;20107;-63
2023/11/20 14:40:55;;;;;;;49.97;31.80;;;;;;;;;;10234927;28;20518;-63
2023/11/20 14:45:53;;;;;;;59.85;31.98;;;;;;;;;;10233732;28;20498;-63
2023/11/20 14:50:52;;;;;;;38.75;31.00;;;;;;;;;;10228491;28;20077;-64
2023/11/20 14:55:51;;;;;;;32.47;25.55;;;;;;;;;;10233914;28;20419;-63
2023/11/20 15:00:51;;;;;;;26.00;21.63;;;;;;;;;;10221404;28;20221;-63
2023/11/20 15:05:50;;;;;;;27.55;23.50;;;;;;;;;;10232928;28;20069;-64
2023/11/20 15:10:50;;;;;;;33.28;25.55;;;;;;;;;;10235279;28;20073;-64
2023/11/20 15:15:48;;;;;;;26.05;23.27;;;;;;;;;;10230405;28;20077;-64
2023/11/20 15:20:48;;;;;;;42.55;38.00;;;;;;;;;;10234238;28;20499;-63
2023/11/20 15:25:47;;;;;;;31.08;26.58;;;;;;;;;;10234871;28;20117;-63
2023/11/20 15:30:45;;;;;;;41.08;34.22;;;;;;;;;;10231973;28;20061;-63
2023/11/20 15:35:45;;;;;;;35.05;23.45;;;;;;;;;;10234523;28;20081;-64
2023/11/20 15:40:45;;;;;;;19.58;15.68;;;;;;;;;;10235312;28;20084;-64
2023/11/20 15:45:44;;;;;;;14.10;10.20;;;;;;;;;;10233435;28;20073;-63
2023/11/20 15:50:42;;;;;;;10.35;8.88;;;;;;;;;;10228972;28;20081;-63
2023/11/20 15:55:40;;;;;;;9.45;8.38;;;;;;;;;;10234252;28;20481;-63
2023/11/20 16:00:40;;;;;;;17.55;11.07;;;;;;;;;;10233989;28;20081;-63
2023/11/20 16:05:38;;;;;;;9.55;8.25;;;;;;;;;;10230851;28;20076;-63
2023/11/20 16:10:36;;;;;;;8.45;7.53;;;;;;;;;;10229706;28;20079;-63
2023/11/20 16:15:34;;;;;;;10.77;8.52;;;;;;;;;;10228955;28;20092;-62
2023/11/20 16:20:34;;;;;;;16.83;13.00;;;;;;;;;;10230062;28;20491;-63
2023/11/20 16:25:32;;;;;;;20.58;16.25;;;;;;;;;;10229739;28;20171;-63
2023/11/20 16:30:47;;;;;;;10.93;8.98;;;;;;;;;;10231675;28;20652;-63
2023/11/20 16:35:47;;;;;;;11.15;9.73;;;;;;;;;;10233337;28;20072;-63
2023/11/20 16:40:45;;;;;;;6.53;5.85;;;;;;;;;;10228110;28;20514;-63
2023/11/20 16:45:44;;;;;;;7.38;5.05;;;;;;;;;;10229114;28;20072;-64
2023/11/20 16:50:44;;;;;;;6.32;5.28;;;;;;;;;;10231699;28;20065;-63
2023/11/20 16:55:43;;;;;;;6.53;5.13;;;;;;;;;;10229821;28;20072;-62
2023/11/20 17:00:43;;;;;;;7.35;5.60;;;;;;;;;;10230533;28;20081;-63
2023/11/20 17:05:44;;;;;;;12.07;7.10;;;;;;;;;;10228844;28;20080;-63
2023/11/20 17:10:44;;;;;;;14.13;8.98;;;;;;;;;;10230608;28;20184;-63
2023/11/20 17:15:44;;;;;;;21.98;15.07;;;;;;;;;;10230613;28;20479;-64
2023/11/20 17:20:43;;;;;;;15.43;11.68;;;;;;;;;;10230332;28;20084;-62
2023/11/20 17:25:41;;;;;;;22.63;14.40;;;;;;;;;;10229252;28;20072;-62
2023/11/20 17:30:41;;;;;;;17.27;12.68;;;;;;;;;;10227615;28;20073;-63
2023/11/20 17:35:39;;;;;;;11.32;9.55;;;;;;;;;;10224545;28;20065;-63
2023/11/20 17:40:39;;;;;;;14.25;9.90;;;;;;;;;;10229968;28;20076;-63
2023/11/20 17:45:37;;;;;;;8.18;7.38;;;;;;;;;;10228269;28;20088;-63
2023/11/20 17:50:40;;;;;;;7.15;5.65;;;;;;;;;;10226725;28;20115;-63
2023/11/20 17:55:38;;;;;;;8.05;6.63;;;;;;;;;;10225650;28;20069;-63
2023/11/20 18:00:36;;;;;;;7.47;6.40;;;;;;;;;;10236448;28;20085;-63
2023/11/20 18:05:37;;;;;;;8.38;6.93;;;;;;;;;;10238789;28;20084;-62
2023/11/20 18:10:37;;;;;;;5.95;5.32;;;;;;;;;;10237213;28;20069;-64
2023/11/20 18:15:35;;;;;;;8.82;6.38;;;;;;;;;;10235372;28;20099;-64
2023/11/20 18:20:33;;;;;;;8.90;5.82;;;;;;;;;;10234442;28;20482;-64
2023/11/20 18:25:31;;;;;;;8.70;6.40;;;;;;;;;;10232697;28;20077;-64
2023/11/20 18:30:31;;;;;;;8.18;6.25;;;;;;;;;;10235367;28;20525;-64
2023/11/20 18:35:29;;;;;;;10.85;5.82;;;;;;;;;;10236175;28;20080;-63
2023/11/20 18:40:28;;;;;;;10.48;9.00;;;;;;;;;;10233161;28;20080;-63
2023/11/20 18:45:26;;;;;;;6.88;5.88;;;;;;;;;;10232263;28;20096;-63
2023/11/20 18:50:26;;;;;;;9.38;6.85;;;;;;;;;;10235566;28;20083;-63
2023/11/20 18:55:25;;;;;;;6.68;5.68;;;;;;;;;;10231380;28;20072;-63
2023/11/20 19:00:24;;;;;;;9.98;6.68;;;;;;;;;;10228257;28;20525;-64
2023/11/20 19:05:22;;;;;;;10.68;6.97;;;;;;;;;;10232670;28;20076;-63
2023/11/20 19:10:22;;;;;;;12.52;6.75;;;;;;;;;;10234806;28;20528;-64
2023/11/20 19:15:21;;;;;;;12.25;9.10;;;;;;;;;;10234337;28;20068;-63
2023/11/20 19:20:19;;;;;;;13.82;11.07;;;;;;;;;;10233380;28;20073;-63
2023/11/20 19:25:17;;;;;;;10.55;8.35;;;;;;;;;;10234303;28;20069;-63
2023/11/20 19:30:17;;;;;;;10.95;9.73;;;;;;;;;;10231366;28;20073;-63
2023/11/20 19:35:16;;;;;;;19.48;13.25;;;;;;;;;;10233251;28;20754;-63
2023/11/20 19:40:14;;;;;;;20.65;12.50;;;;;;;;;;10234045;28;20084;-64
2023/11/20 19:45:18;;;;;;;16.83;11.32;;;;;;;;;;10234319;28;20077;-63
2023/11/20 19:50:18;;;;;;;19.33;12.25;;;;;;;;;;10235143;28;20080;-63
2023/11/20 19:55:16;;;;;;;15.82;12.40;;;;;;;;;;10234138;28;20510;-63
2023/11/20 20:00:17;;;;;;;11.05;8.80;;;;;;;;;;10234051;28;20605;-64
2023/11/20 20:05:17;;;;;;;8.50;7.43;;;;;;;;;;10234913;28;20080;-64
2023/11/20 20:10:17;;;;;;;9.07;6.15;;;;;;;;;;10233967;28;20076;-62
2023/11/20 20:15:15;;;;;;;10.95;6.63;;;;;;;;;;10233781;28;20061;-64
2023/11/20 20:20:16;;;;;;;7.95;5.80;;;;;;;;;;10232510;28;20096;-64
2023/11/20 20:25:17;;;;;;;16.33;11.93;;;;;;;;;;10233425;28;20074;-64
2023/11/20 20:30:17;;;;;;;11.35;8.90;;;;;;;;;;10233905;28;20495;-65
2023/11/20 20:35:15;;;;;;;12.88;7.97;;;;;;;;;;10230420;28;20495;-63
2023/11/20 20:40:15;;;;;;;7.40;4.95;;;;;;;;;;10233194;28;20072;-63
2023/11/20 20:45:13;;;;;;;8.95;6.00;;;;;;;;;;10232640;28;20069;-64
2023/11/20 20:50:13;;;;;;;7.88;5.97;;;;;;;;;;10232943;28;20088;-62
2023/11/20 20:55:12;;;;;;;26.98;13.73;;;;;;;;;;10232792;28;20085;-63
2023/11/20 21:00:14;;;;;;;7.63;5.70;;;;;;;;;;10226665;28;20095;-61
2023/11/20 21:05:14;;;;;;;6.53;4.82;;;;;;;;;;10230078;28;20076;-62
2023/11/20 21:10:14;;;;;;;6.53;4.70;;;;;;;;;;10229105;28;20068;-63
2023/11/20 21:15:14;;;;;;;7.63;5.38;;;;;;;;;;10228007;28;20076;-64
2023/11/20 21:20:14;;;;;;;7.10;4.85;;;;;;;;;;10227599;28;20072;-63
2023/11/20 21:25:13;;;;;;;8.45;6.18;;;;;;;;;;10227590;28;20087;-63
2023/11/20 21:30:12;;;;;;;7.53;5.30;;;;;;;;;;10230271;28;20073;-63
2023/11/20 21:35:12;;;;;;;7.97;5.68;;;;;;;;;;10239715;28;20105;-64
2023/11/20 21:40:12;;;;;;;7.60;5.50;;;;;;;;;;10239768;28;20073;-63
2023/11/20 21:45:11;;;;;;;10.75;6.43;;;;;;;;;;10238951;28;20103;-62
2023/11/20 21:50:09;;;;;;;6.97;5.85;;;;;;;;;;10238531;28;20076;-64
2023/11/20 21:55:08;;;;;;;8.00;6.25;;;;;;;;;;10237952;28;20080;-64
2023/11/20 22:00:12;;;;;;;6.05;5.20;;;;;;;;;;10237343;28;20085;-64
2023/11/20 22:05:10;;;;;;;7.60;5.90;;;;;;;;;;10238422;28;20077;-63
2023/11/20 22:10:09;;;;;;;12.07;7.55;;;;;;;;;;10237411;28;20463;-64
2023/11/20 22:15:10;;;;;;;7.25;6.55;;;;;;;;;;10237388;28;20076;-64
2023/11/20 22:20:10;;;;;;;5.90;5.00;;;;;;;;;;10237484;28;20096;-63
2023/11/20 22:25:10;;;;;;;7.93;5.90;;;;;;;;;;10237044;28;20468;-63
2023/11/20 22:30:10;;;;;;;6.88;5.63;;;;;;;;;;10225437;28;20081;-62
2023/11/20 22:35:09;;;;;;;8.85;6.15;;;;;;;;;;10236142;28;20064;-64
2023/11/20 22:40:15;;;;;;;8.07;6.05;;;;;;;;;;10237032;28;20080;-63
2023/11/20 22:45:15;;;;;;;7.65;5.38;;;;;;;;;;10238137;28;20459;-63
2023/11/20 22:50:13;;;;;;;7.53;6.03;;;;;;;;;;10237397;28;20127;-63
2023/11/20 22:55:12;;;;;;;6.60;5.43;;;;;;;;;;10235791;28;20076;-63
2023/11/20 23:00:15;;;;;;;9.23;5.60;;;;;;;;;;10237722;28;20506;-63
2023/11/20 23:05:15;;;;;;;7.72;4.93;;;;;;;;;;10235901;28;20490;-63
2023/11/20 23:10:14;;;;;;;8.68;5.22;;;;;;;;;;10235044;28;20076;-63
2023/11/20 23:15:14;;;;;;;7.97;5.25;;;;;;;;;;10235024;28;20571;-63
2023/11/20 23:20:14;;;;;;;6.47;5.75;;;;;;;;;;10235396;28;20077;-63
2023/11/20 23:25:17;;;;;;;6.43;5.27;;;;;;;;;;10237039;28;20083;-64
2023/11/20 23:30:20;;;;;;;10.23;6.38;;;;;;;;;;10236398;28;20069;-64
2023/11/20 23:35:20;;;;;;;9.98;6.45;;;;;;;;;;10236027;28;20068;-64
2023/11/20 23:40:18;;;;;;;13.98;7.80;;;;;;;;;;10236319;28;20081;-64
2023/11/20 23:45:17;;;;;;;11.40;7.97;;;;;;;;;;10235683;28;20077;-63
2023/11/20 23:50:16;;;;;;;6.38;4.80;;;;;;;;;;10235011;28;20072;-63
2023/11/20 23:55:17;;;;;;;7.53;5.32;;;;;;;;;;10234560;28;20517;-63
